createdAt,value
2022-08-30T00:01:14.569Z,13.40
2022-08-30T00:04:02.223Z,10.60
2022-08-30T00:06:47.576Z,7.63
2022-08-30T00:09:33.194Z,8.27
2022-08-30T00:12:21.180Z,8.27
2022-08-30T00:15:07.223Z,15.32
2022-08-30T00:17:54.456Z,13.50
2022-08-30T00:20:40.396Z,9.40
2022-08-30T00:23:26.960Z,10.88
2022-08-30T00:26:12.659Z,7.60
2022-08-30T00:28:58.857Z,11.45
2022-08-30T00:31:43.991Z,11.88
2022-08-30T00:34:29.638Z,9.93
2022-08-30T00:37:15.860Z,10.75
2022-08-30T00:40:03.935Z,11.05
2022-08-30T00:42:51.003Z,10.70
2022-08-30T00:45:38.661Z,9.65
2022-08-30T00:48:26.979Z,10.25
2022-08-30T00:51:14.847Z,10.75
2022-08-30T00:54:01.376Z,11.40
2022-08-30T00:56:49.584Z,12.38
2022-08-30T00:59:35.317Z,12.73
2022-08-30T01:02:23.739Z,9.05
2022-08-30T01:05:10.987Z,10.80
2022-08-30T01:08:01.648Z,12.18
2022-08-30T01:10:46.944Z,8.25
2022-08-30T01:13:34.676Z,13.20
2022-08-30T01:16:21.884Z,15.25
2022-08-30T01:19:24.780Z,10.93
2022-08-30T01:22:25.223Z,10.73
2022-08-30T01:25:12.856Z,11.35
2022-08-30T01:28:06.256Z,7.65
2022-08-30T01:30:56.242Z,7.85
2022-08-30T01:33:44.797Z,16.52
2022-08-30T01:36:31.122Z,8.95
2022-08-30T01:39:18.674Z,12.93
2022-08-30T01:42:05.021Z,10.68
2022-08-30T01:44:51.245Z,14.77
2022-08-30T01:47:37.643Z,8.98
2022-08-30T01:50:23.061Z,10.35
2022-08-30T01:53:09.066Z,10.23
2022-08-30T01:55:59.210Z,12.05
2022-08-30T01:58:45.090Z,11.15
2022-08-30T02:01:33.363Z,13.15
2022-08-30T02:04:19.381Z,13.25
2022-08-30T02:07:06.488Z,12.38
2022-08-30T02:09:53.148Z,11.60
2022-08-30T02:12:38.489Z,20.08
2022-08-30T02:15:23.791Z,9.82
2022-08-30T02:18:10.870Z,9.50
2022-08-30T02:20:56.653Z,9.63
2022-08-30T02:23:42.595Z,14.07
2022-08-30T02:26:31.111Z,12.48
2022-08-30T02:29:20.542Z,14.10
2022-08-30T02:32:06.151Z,8.32
2022-08-30T02:34:51.564Z,13.63
2022-08-30T02:37:37.929Z,12.20
2022-08-30T02:40:23.627Z,10.32
2022-08-30T02:43:10.153Z,11.70
2022-08-30T02:45:58.429Z,12.63
2022-08-30T02:48:45.207Z,12.90
2022-08-30T02:51:30.895Z,12.18
2022-08-30T02:54:20.105Z,12.10
2022-08-30T02:57:06.735Z,14.10
2022-08-30T02:59:52.321Z,20.30
2022-08-30T03:02:43.751Z,12.98
2022-08-30T03:05:29.946Z,17.85
2022-08-30T03:08:15.523Z,14.05
2022-08-30T03:11:03.098Z,14.23
2022-08-30T03:13:51.214Z,16.77
2022-08-30T03:16:38.185Z,16.27
2022-08-30T03:19:25.575Z,18.42
2022-08-30T03:22:11.569Z,17.80
2022-08-30T03:24:59.587Z,18.50
2022-08-30T03:27:44.816Z,20.15
2022-08-30T03:30:30.567Z,16.13
2022-08-30T03:33:16.560Z,18.75
2022-08-30T03:36:08.745Z,14.43
2022-08-30T03:38:57.640Z,16.65
2022-08-30T03:41:43.169Z,19.65
2022-08-30T03:44:28.456Z,16.50
2022-08-30T03:47:14.056Z,20.00
2022-08-30T03:50:00.352Z,20.70
2022-08-30T03:52:46.084Z,18.95
2022-08-30T03:55:31.849Z,18.48
2022-08-30T03:58:19.061Z,26.42
2022-08-30T04:01:05.020Z,19.17
2022-08-30T04:03:50.980Z,22.30
2022-08-30T04:06:36.491Z,20.90
2022-08-30T04:09:22.119Z,21.15
2022-08-30T04:12:08.802Z,20.95
2022-08-30T04:14:54.208Z,23.42
2022-08-30T04:17:39.692Z,23.50
2022-08-30T04:20:25.076Z,20.15
2022-08-30T04:23:11.812Z,21.48
2022-08-30T04:25:57.585Z,19.67
2022-08-30T04:28:42.886Z,20.42
2022-08-30T04:31:28.770Z,23.63
2022-08-30T04:34:18.475Z,27.67
2022-08-30T04:37:04.737Z,21.90
2022-08-30T04:39:50.898Z,19.05
2022-08-30T04:42:39.190Z,22.55
2022-08-30T04:45:24.657Z,23.77
2022-08-30T04:48:10.443Z,32.28
2022-08-30T04:50:57.971Z,21.30
2022-08-30T04:53:44.244Z,27.20
2022-08-30T04:56:30.887Z,26.67
2022-08-30T04:59:16.976Z,26.15
2022-08-30T05:02:14.341Z,24.35
2022-08-30T05:05:20.132Z,22.33
2022-08-30T05:08:06.413Z,20.15
2022-08-30T05:10:57.339Z,23.02
2022-08-30T05:13:44.009Z,33.90
2022-08-30T05:16:29.938Z,25.58
2022-08-30T05:19:15.623Z,27.27
2022-08-30T05:22:01.240Z,25.65
2022-08-30T05:24:49.437Z,24.65
2022-08-30T05:27:37.660Z,32.28
2022-08-30T05:30:24.658Z,24.50
2022-08-30T05:33:10.180Z,22.35
2022-08-30T05:35:55.598Z,23.55
2022-08-30T05:38:42.015Z,25.60
2022-08-30T05:41:27.682Z,21.90
2022-08-30T05:44:16.207Z,23.50
2022-08-30T05:47:01.450Z,22.55
2022-08-30T05:49:48.380Z,25.25
2022-08-30T05:52:41.803Z,20.13
2022-08-30T05:55:27.252Z,22.08
2022-08-30T05:58:12.797Z,20.23
2022-08-30T06:00:59.068Z,21.83
2022-08-30T06:03:44.402Z,17.38
2022-08-30T06:06:31.898Z,16.60
2022-08-30T06:09:17.611Z,17.73
2022-08-30T06:12:03.263Z,16.00
2022-08-30T06:14:48.728Z,18.98
2022-08-30T06:17:34.260Z,17.80
2022-08-30T06:20:20.377Z,15.70
2022-08-30T06:23:06.194Z,14.23
2022-08-30T06:25:51.705Z,15.05
2022-08-30T06:28:37.363Z,15.55
2022-08-30T06:31:25.792Z,12.65
2022-08-30T06:34:11.539Z,13.38
2022-08-30T06:36:59.123Z,12.68
2022-08-30T06:39:44.443Z,10.15
2022-08-30T06:42:35.249Z,10.10
2022-08-30T06:45:21.884Z,12.10
2022-08-30T06:48:07.437Z,12.88
2022-08-30T06:50:54.889Z,10.82
2022-08-30T06:53:42.268Z,11.88
2022-08-30T06:56:28.159Z,14.95
2022-08-30T06:59:13.784Z,14.10
2022-08-30T07:01:59.618Z,11.05
2022-08-30T07:04:44.924Z,9.25
2022-08-30T07:07:30.439Z,6.60
2022-08-30T07:10:16.691Z,11.77
2022-08-30T07:13:01.904Z,6.18
2022-08-30T07:15:48.110Z,8.10
2022-08-30T07:18:51.944Z,6.85
2022-08-30T07:21:40.163Z,12.77
2022-08-30T07:24:25.511Z,6.97
2022-08-30T07:27:11.078Z,4.60
2022-08-30T07:30:00.895Z,7.18
2022-08-30T07:32:46.088Z,7.40
2022-08-30T07:35:37.347Z,3.67
2022-08-30T07:38:23.021Z,6.65
2022-08-30T07:41:08.689Z,6.63
2022-08-30T07:43:55.111Z,7.97
2022-08-30T07:46:41.667Z,7.65
2022-08-30T07:49:27.257Z,4.65
2022-08-30T07:52:12.926Z,15.02
2022-08-30T07:55:02.328Z,6.22
2022-08-30T07:57:47.946Z,4.60
2022-08-30T08:00:33.599Z,9.82
2022-08-30T08:03:19.256Z,7.15
2022-08-30T08:06:06.751Z,3.92
2022-08-30T08:08:53.575Z,7.30
2022-08-30T08:11:41.557Z,5.47
2022-08-30T08:14:28.707Z,11.93
2022-08-30T08:17:14.261Z,2.58
2022-08-30T08:20:00.801Z,5.70
2022-08-30T08:22:46.281Z,6.32
2022-08-30T08:25:32.029Z,4.57
2022-08-30T08:28:24.767Z,5.70
2022-08-30T08:31:16.224Z,6.20
2022-08-30T08:34:05.946Z,7.85
2022-08-30T08:36:51.728Z,5.00
2022-08-30T08:39:37.161Z,2.75
2022-08-30T08:42:43.192Z,6.57
2022-08-30T08:45:51.626Z,2.22
2022-08-30T08:48:59.678Z,3.10
2022-08-30T08:52:07.310Z,4.28
2022-08-30T08:55:17.403Z,7.15
2022-08-30T08:58:03.228Z,6.43
2022-08-30T09:00:48.673Z,4.32
2022-08-30T09:03:35.072Z,4.05
2022-08-30T09:06:29.567Z,7.80
2022-08-30T09:09:18.255Z,9.00
2022-08-30T09:12:04.945Z,2.08
2022-08-30T09:14:55.443Z,3.67
2022-08-30T09:17:55.229Z,10.70
2022-08-30T09:20:47.210Z,5.03
2022-08-30T09:23:39.164Z,7.63
2022-08-30T09:26:35.156Z,6.82
2022-08-30T09:29:21.120Z,5.30
2022-08-30T09:32:25.623Z,5.18
2022-08-30T09:35:18.200Z,5.07
2022-08-30T09:38:08.394Z,3.25
2022-08-30T09:40:57.148Z,8.63
2022-08-30T09:43:42.324Z,6.57
2022-08-30T09:46:27.796Z,1.92
2022-08-30T09:49:36.422Z,5.07
2022-08-30T09:52:27.654Z,4.35
2022-08-30T09:55:32.604Z,13.88
2022-08-30T09:58:48.745Z,3.75
2022-08-30T10:01:39.682Z,1.60
2022-08-30T10:04:44.299Z,2.38
2022-08-30T10:07:38.585Z,2.75
2022-08-30T10:10:24.864Z,5.18
2022-08-30T10:13:41.258Z,3.05
2022-08-30T10:16:35.280Z,4.03
2022-08-30T10:19:44.184Z,7.20
2022-08-30T10:22:29.729Z,7.70
2022-08-30T10:25:25.140Z,9.35
2022-08-30T10:28:36.363Z,4.13
2022-08-30T10:31:52.339Z,2.50
2022-08-30T10:34:56.243Z,8.43
2022-08-30T10:37:52.293Z,4.68
2022-08-30T10:41:01.153Z,8.73
2022-08-30T10:43:52.661Z,7.38
2022-08-30T10:47:23.072Z,4.13
2022-08-30T10:50:47.103Z,3.20
2022-08-30T10:53:55.666Z,6.88
2022-08-30T10:56:44.638Z,7.85
2022-08-30T10:59:30.076Z,2.53
2022-08-30T11:02:46.644Z,6.07
2022-08-30T11:05:58.328Z,2.97
2022-08-30T11:09:17.569Z,3.03
2022-08-30T11:12:38.149Z,6.78
2022-08-30T11:15:26.704Z,5.65
2022-08-30T11:18:15.118Z,6.00
2022-08-30T11:21:25.719Z,2.70
2022-08-30T11:24:13.435Z,4.93
2022-08-30T11:27:01.175Z,5.82
2022-08-30T11:29:48.655Z,5.35
2022-08-30T11:33:09.400Z,8.43
2022-08-30T11:35:55.360Z,5.45
2022-08-30T11:38:40.556Z,3.63
2022-08-30T11:41:38.205Z,2.65
2022-08-30T11:44:31.528Z,7.53
2022-08-30T11:47:48.851Z,6.53
2022-08-30T11:50:54.641Z,4.20
2022-08-30T11:53:49.265Z,3.35
2022-08-30T11:56:57.063Z,6.45
2022-08-30T12:00:02.334Z,6.75
2022-08-30T12:03:06.204Z,10.90
2022-08-30T12:06:04.711Z,4.13
2022-08-30T12:08:59.575Z,2.88
2022-08-30T12:11:56.931Z,3.63
2022-08-30T12:15:00.459Z,42.22
2022-08-30T12:18:04.168Z,11.18
2022-08-30T12:20:50.486Z,3.60
2022-08-30T12:23:48.380Z,4.90
2022-08-30T12:26:43.835Z,2.08
2022-08-30T12:29:31.186Z,5.75
2022-08-30T12:32:25.480Z,2.47
2022-08-30T12:35:22.271Z,10.20
2022-08-30T12:38:25.631Z,9.50
2022-08-30T12:41:22.841Z,5.82
2022-08-30T12:44:31.902Z,3.28
2022-08-30T12:47:22.914Z,4.38
2022-08-30T12:50:09.928Z,4.30
2022-08-30T12:53:13.066Z,3.08
2022-08-30T12:56:09.524Z,7.43
2022-08-30T12:58:55.514Z,7.13
2022-08-30T13:01:41.477Z,2.35
2022-08-30T13:04:28.656Z,1.48
2022-08-30T13:07:28.536Z,6.85
2022-08-30T13:10:21.971Z,4.18
2022-08-30T13:16:20.722Z,4.95
2022-08-30T13:19:33.708Z,5.10
2022-08-30T13:22:28.729Z,7.40
2022-08-30T13:25:14.328Z,4.93
2022-08-30T13:28:01.333Z,6.63
2022-08-30T13:30:46.695Z,11.93
2022-08-30T13:33:32.316Z,5.97
2022-08-30T13:36:20.432Z,4.88
2022-08-30T13:39:08.374Z,10.38
2022-08-30T13:41:54.787Z,5.38
2022-08-30T13:44:42.577Z,5.63
2022-08-30T13:47:35.027Z,3.60
2022-08-30T13:50:22.242Z,5.57
2022-08-30T13:53:09.320Z,5.00
2022-08-30T13:55:55.427Z,5.85
2022-08-30T13:58:41.007Z,2.92
2022-08-30T14:01:28.110Z,6.20
2022-08-30T14:04:15.772Z,7.03
2022-08-30T14:07:13.968Z,4.05
2022-08-30T14:13:10.108Z,4.47
2022-08-30T14:19:10.836Z,5.22
2022-08-30T14:21:56.504Z,15.23
2022-08-30T14:24:41.926Z,7.97
2022-08-30T14:27:29.731Z,7.47
2022-08-30T14:30:21.107Z,7.03
2022-08-30T14:33:06.530Z,4.95
2022-08-30T14:35:55.038Z,4.25
2022-08-30T14:38:40.465Z,2.92
2022-08-30T14:41:28.203Z,10.25
2022-08-30T14:44:14.804Z,5.38
2022-08-30T14:47:00.605Z,7.32
2022-08-30T14:49:46.185Z,5.65
2022-08-30T14:52:32.415Z,6.30
2022-08-30T14:55:17.897Z,3.78
2022-08-30T14:58:04.079Z,3.22
2022-08-30T15:00:54.718Z,7.20
2022-08-30T15:03:42.511Z,8.40
2022-08-30T15:06:28.210Z,4.95
2022-08-30T15:09:18.500Z,8.93
2022-08-30T15:12:09.067Z,13.65
2022-08-30T15:14:55.768Z,3.83
2022-08-30T15:17:41.326Z,5.53
2022-08-30T15:20:27.674Z,4.15
2022-08-30T15:23:16.902Z,3.17
2022-08-30T15:26:03.452Z,4.90
2022-08-30T15:28:48.879Z,2.58
2022-08-30T15:31:34.897Z,7.00
2022-08-30T15:34:26.191Z,5.78
2022-08-30T15:37:16.317Z,10.85
2022-08-30T15:40:04.736Z,4.10
2022-08-30T15:42:51.390Z,3.88
2022-08-30T15:45:36.678Z,5.40
2022-08-30T15:48:23.111Z,3.95
2022-08-30T15:51:13.964Z,5.00
2022-08-30T15:54:00.131Z,4.78
2022-08-30T15:56:46.178Z,3.55
2022-08-30T15:59:31.923Z,9.10
2022-08-30T16:02:18.241Z,6.82
2022-08-30T16:05:04.926Z,4.32
2022-08-30T16:07:52.426Z,6.57
2022-08-30T16:10:44.969Z,4.78
2022-08-30T16:13:33.719Z,2.85
2022-08-30T16:16:20.996Z,5.43
2022-08-30T16:19:06.987Z,4.20
2022-08-30T16:21:52.518Z,3.72
2022-08-30T16:24:39.327Z,5.18
2022-08-30T16:27:25.132Z,6.15
2022-08-30T16:30:14.206Z,3.70
2022-08-30T16:33:01.113Z,5.85
2022-08-30T16:35:51.102Z,7.55
2022-08-30T16:38:36.700Z,4.18
2022-08-30T16:41:22.947Z,6.60
2022-08-30T16:44:12.864Z,3.10
2022-08-30T16:46:58.287Z,3.78
2022-08-30T16:49:43.702Z,2.22
2022-08-30T16:52:36.127Z,3.92
2022-08-30T16:55:25.025Z,2.47
2022-08-30T16:58:19.289Z,7.25
2022-08-30T17:01:06.394Z,2.55
2022-08-30T17:03:53.216Z,6.53
2022-08-30T17:06:39.080Z,3.00
2022-08-30T17:09:24.861Z,2.45
2022-08-30T17:12:11.211Z,4.63
2022-08-30T17:14:56.959Z,5.75
2022-08-30T17:17:43.402Z,9.80
2022-08-30T17:20:31.837Z,2.58
2022-08-30T17:23:20.043Z,3.72
2022-08-30T17:26:07.393Z,3.58
2022-08-30T17:28:54.613Z,4.10
2022-08-30T17:31:41.704Z,5.38
2022-08-30T17:34:28.165Z,4.63
2022-08-30T17:37:13.606Z,3.00
2022-08-30T17:40:02.669Z,4.78
2022-08-30T17:42:54.094Z,6.82
2022-08-30T17:45:42.472Z,2.38
2022-08-30T17:48:29.109Z,2.65
2022-08-30T17:51:15.873Z,5.38
2022-08-30T17:54:02.859Z,5.43
2022-08-30T17:56:48.804Z,5.57
2022-08-30T17:59:35.361Z,3.28
2022-08-30T18:02:23.060Z,2.83
2022-08-30T18:05:15.785Z,2.42
2022-08-30T18:08:01.451Z,2.85
2022-08-30T18:10:48.171Z,4.53
2022-08-30T18:13:35.927Z,4.30
2022-08-30T18:16:21.460Z,3.80
2022-08-30T18:19:09.536Z,8.65
2022-08-30T18:21:55.859Z,4.25
2022-08-30T18:24:41.150Z,5.18
2022-08-30T18:27:27.097Z,4.93
2022-08-30T18:30:14.276Z,6.22
2022-08-30T18:33:00.105Z,4.13
2022-08-30T18:35:48.722Z,4.32
2022-08-30T18:38:35.667Z,4.63
2022-08-30T18:41:21.346Z,6.40
2022-08-30T18:44:26.768Z,5.32
2022-08-30T18:47:12.757Z,3.22
2022-08-30T18:49:58.916Z,8.02
2022-08-30T18:52:45.277Z,4.93
2022-08-30T18:55:30.939Z,5.85
2022-08-30T18:58:17.188Z,8.77
2022-08-30T19:01:04.473Z,4.90
2022-08-30T19:03:49.885Z,14.70
2022-08-30T19:06:37.688Z,4.50
2022-08-30T19:09:23.893Z,7.28
2022-08-30T19:12:12.303Z,8.60
2022-08-30T19:14:59.406Z,4.93
2022-08-30T19:17:46.190Z,5.03
2022-08-30T19:20:31.707Z,7.38
2022-08-30T19:23:18.383Z,4.63
2022-08-30T19:26:05.364Z,5.13
2022-08-30T19:28:50.533Z,5.90
2022-08-30T19:31:40.053Z,7.38
2022-08-30T19:34:26.844Z,8.25
2022-08-30T19:37:14.836Z,4.55
2022-08-30T19:40:08.892Z,5.43
2022-08-30T19:42:55.319Z,6.00
2022-08-30T19:45:41.677Z,6.00
2022-08-30T19:48:32.302Z,7.10
2022-08-30T19:51:18.418Z,6.90
2022-08-30T19:54:05.684Z,8.90
2022-08-30T19:56:53.579Z,9.32
2022-08-30T19:59:38.964Z,5.88
2022-08-30T20:02:30.558Z,8.82
2022-08-30T20:05:24.372Z,5.97
2022-08-30T20:08:10.149Z,5.32
2022-08-30T20:10:56.726Z,4.50
2022-08-30T20:13:43.857Z,5.85
2022-08-30T20:19:36.176Z,5.85
2022-08-30T20:22:21.799Z,10.70
2022-08-30T20:25:10.785Z,7.05
2022-08-30T20:27:57.515Z,8.25
2022-08-30T20:30:43.624Z,7.75
2022-08-30T20:33:29.288Z,6.00
2022-08-30T20:36:14.949Z,8.40
2022-08-30T20:39:02.255Z,7.15
2022-08-30T20:41:48.462Z,4.68
2022-08-30T20:44:34.700Z,6.70
2022-08-30T20:47:21.203Z,9.95
2022-08-30T20:50:13.911Z,5.75
2022-08-30T20:52:59.182Z,9.15
2022-08-30T20:55:47.187Z,7.05
2022-08-30T20:58:32.666Z,6.28
2022-08-30T21:01:18.386Z,8.20
2022-08-30T21:04:05.574Z,9.07
2022-08-30T21:06:51.519Z,8.35
2022-08-30T21:09:38.407Z,6.68
2022-08-30T21:12:30.564Z,8.30
2022-08-30T21:15:36.203Z,13.25
2022-08-30T21:18:22.313Z,6.47
2022-08-30T21:21:21.036Z,9.13
2022-08-30T21:24:10.394Z,11.75
2022-08-30T21:26:59.081Z,8.93
2022-08-30T21:29:44.763Z,7.80
2022-08-30T21:32:30.298Z,6.85
2022-08-30T21:35:33.944Z,7.63
2022-08-30T21:38:19.961Z,15.38
2022-08-30T21:41:05.792Z,7.70
2022-08-30T21:43:57.969Z,10.20
2022-08-30T21:46:47.409Z,5.05
2022-08-30T21:49:33.739Z,8.27
2022-08-30T21:52:19.526Z,6.70
2022-08-30T21:55:05.752Z,5.75
2022-08-30T21:57:51.133Z,11.73
2022-08-30T22:00:36.458Z,6.55
2022-08-30T22:03:34.432Z,6.50
2022-08-30T22:06:20.298Z,5.18
2022-08-30T22:09:08.689Z,9.20
2022-08-30T22:11:54.843Z,6.63
2022-08-30T22:14:40.901Z,6.57
2022-08-30T22:17:26.317Z,6.85
2022-08-30T22:20:18.448Z,4.47
2022-08-30T22:23:04.445Z,5.75
2022-08-30T22:25:51.778Z,12.02
2022-08-30T22:28:37.722Z,7.90
2022-08-30T22:31:23.732Z,7.90
2022-08-30T22:34:14.143Z,5.22
2022-08-30T22:37:00.153Z,6.03
2022-08-30T22:39:45.966Z,4.63
2022-08-30T22:42:31.627Z,3.22
2022-08-30T22:45:17.409Z,5.50
2022-08-30T22:48:03.211Z,5.32
2022-08-30T22:50:48.627Z,5.15
2022-08-30T22:53:34.377Z,7.13
2022-08-30T22:56:23.828Z,5.32
2022-08-30T22:59:09.474Z,5.10
2022-08-30T23:01:55.128Z,4.43
2022-08-30T23:04:41.449Z,7.22
2022-08-30T23:07:27.053Z,4.43
2022-08-30T23:10:14.318Z,6.50
2022-08-30T23:13:00.667Z,3.80
2022-08-30T23:15:46.033Z,12.20
2022-08-30T23:18:34.851Z,2.60
2022-08-30T23:21:26.850Z,4.22
2022-08-30T23:24:31.098Z,7.35
2022-08-30T23:27:34.921Z,4.85
2022-08-30T23:30:41.894Z,7.57
2022-08-30T23:33:45.915Z,6.57
2022-08-30T23:36:49.678Z,6.00
2022-08-30T23:39:54.340Z,5.07
2022-08-30T23:43:01.057Z,5.90
2022-08-30T23:46:04.916Z,4.40
2022-08-30T23:49:13.069Z,4.80
2022-08-30T23:52:20.162Z,6.07
2022-08-30T23:55:24.863Z,4.72
2022-08-30T23:58:28.767Z,3.15
